Terminal Aerodrome Forecast
Issued by NWS Wilmington, OH

Current Version | Previous Version | Text Only | Print | Product List | Glossary Off
Versions: 1 2 3 4 5 6 7 8 9 10 11 12 13 14 15 16 17 18 19 20 21 22 23 24 25

000
FTUS41 KILN 192327
TAFDAY
TAF
KDAY 192327Z 2000/2024 24006KT P6SM SCT040 BKN250
     FM200700 28004KT P6SM SCT025 BKN250
     FM201000 29003KT 5SM BR BKN025
     FM201300 VRB03KT P6SM SCT080
     FM201800 35005KT P6SM VCTS BKN040CB
     FM202100 04005KT P6SM BKN040=

USA.gov is the U.S. government's official web portal to all federal, state and local government web resources and services.